Aerosim Flight Academy

METAR

KSFB 170253Z 34009KT 10SM FEW044 19/18 A3010 RMK AO2 SLP190 60074 T01940178 51017 $

TAF

TAF AMD KSFB 170102Z 1701/1724 VRB05KT P6SM VCSH SCT025 BKN040 TEMPO 1701/1702 3SM SHRA BKN015 OVC020 FM170600 VRB03KT P6SM FEW015 SCT100 BKN200 TEMPO 1710/1714 3SM BR FEW004 BKN010 FM171400 VRB05KT P6SM SCT020 BKN035